createdAt,value
2022-10-07T00:00:57.040Z,100436.88
2022-10-07T00:03:58.876Z,100442.63
2022-10-07T00:07:00.608Z,100445.44
2022-10-07T00:10:02.828Z,100443.47
2022-10-07T00:13:04.582Z,100438.44
2022-10-07T00:16:13.218Z,100439.13
2022-10-07T00:19:14.987Z,100432.69
2022-10-07T00:22:16.719Z,100437.47
2022-10-07T00:25:18.445Z,100438.59
2022-10-07T00:28:20.213Z,100441.97
2022-10-07T00:31:30.393Z,100446.47
2022-10-07T00:34:32.146Z,100442.69
2022-10-07T00:37:34.398Z,100442.81
2022-10-07T00:40:36.149Z,100441.28
2022-10-07T00:43:38.468Z,100428.38
2022-10-07T00:46:40.930Z,100432.16
2022-10-07T00:49:51.216Z,100424.31
2022-10-07T00:52:59.810Z,100428.22
2022-10-07T00:56:02.940Z,100420.97
2022-10-07T00:59:05.522Z,100415.06
2022-10-07T01:02:08.283Z,100409.88
2022-10-07T01:05:12.687Z,100410.16
2022-10-07T01:08:15.742Z,100408.06
2022-10-07T01:11:26.781Z,100399.06
2022-10-07T01:14:52.834Z,100413.13
2022-10-07T01:18:35.284Z,100407.38
2022-10-07T01:21:58.779Z,100397.25
2022-10-07T01:25:13.217Z,100384.47
2022-10-07T01:28:41.981Z,100387.88
2022-10-07T01:31:49.652Z,100395.03
2022-10-07T01:34:55.302Z,100390.94
2022-10-07T01:38:01.808Z,100379.72
2022-10-07T01:41:16.291Z,100380.84
2022-10-07T01:44:18.879Z,100376.50
2022-10-07T01:47:20.949Z,100372.97
2022-10-07T01:50:26.783Z,100371.19
2022-10-07T01:53:34.857Z,100369.34
2022-10-07T01:57:14.715Z,100373.97
2022-10-07T02:00:18.207Z,100379.84
2022-10-07T02:03:35.113Z,100365.69
2022-10-07T02:06:58.402Z,100367.50
2022-10-07T02:10:12.751Z,100374.66
2022-10-07T02:13:41.377Z,62600.09
2022-10-07T02:16:53.270Z,62600.09
2022-10-07T02:19:56.571Z,62600.09
2022-10-07T02:23:02.298Z,62600.09
2022-10-07T02:26:06.830Z,62600.09
2022-10-07T02:29:12.618Z,62600.09
2022-10-07T02:32:22.270Z,62600.09
2022-10-07T02:35:38.740Z,62600.09
2022-10-07T02:38:40.860Z,62600.09
2022-10-07T02:41:55.524Z,100352.72
2022-10-07T02:45:22.177Z,100347.41
2022-10-07T02:48:38.670Z,100352.31
2022-10-07T02:51:52.013Z,100353.25
2022-10-07T02:54:59.578Z,100350.03
2022-10-07T02:58:07.469Z,100352.13
2022-10-07T03:01:17.494Z,100348.47
2022-10-07T03:04:19.592Z,100358.84
2022-10-07T03:07:23.341Z,100349.44
2022-10-07T03:10:26.895Z,100345.78
2022-10-07T03:13:28.945Z,100343.41
2022-10-07T03:16:34.497Z,100341.75
2022-10-07T03:19:37.106Z,100350.69
2022-10-07T03:22:39.968Z,100340.44
2022-10-07T03:25:42.604Z,100340.03
2022-10-07T03:28:45.183Z,100340.03
2022-10-07T03:31:47.456Z,100346.19
2022-10-07T03:34:49.324Z,100335.56
2022-10-07T03:37:51.376Z,100340.47
2022-10-07T03:40:53.306Z,100332.47
2022-10-07T03:43:57.763Z,100333.59
2022-10-07T03:47:00.712Z,100337.09
2022-10-07T03:50:02.879Z,100337.91
2022-10-07T03:53:06.216Z,100335.41
2022-10-07T03:56:08.270Z,100333.00
2022-10-07T03:59:11.883Z,100338.31
2022-10-07T04:02:13.726Z,100340.44
2022-10-07T04:05:17.119Z,100332.44
2022-10-07T04:08:19.736Z,100332.28
2022-10-07T04:11:25.040Z,100333.84
2022-10-07T04:14:29.587Z,100317.69
2022-10-07T04:17:31.871Z,100312.78
2022-10-07T04:20:37.936Z,100310.94
2022-10-07T04:23:41.331Z,100315.53
2022-10-07T04:26:43.846Z,100305.28
2022-10-07T04:29:45.812Z,100300.50
2022-10-07T04:32:50.760Z,100301.34
2022-10-07T04:35:55.130Z,100299.94
2022-10-07T04:38:57.610Z,100302.59
2022-10-07T04:42:03.706Z,100291.25
2022-10-07T04:45:07.663Z,100296.56
2022-10-07T04:48:10.217Z,100295.00
2022-10-07T04:51:13.243Z,100303.97
2022-10-07T04:54:17.208Z,100309.13
2022-10-07T04:57:23.674Z,100295.00
2022-10-07T05:00:26.595Z,100299.50
2022-10-07T05:03:29.441Z,100320.34
2022-10-07T05:06:32.800Z,100300.06
2022-10-07T05:09:34.788Z,100310.56
2022-10-07T05:12:36.939Z,100306.53
2022-10-07T05:15:47.855Z,100307.56
2022-10-07T05:18:50.689Z,100316.50
2022-10-07T05:21:53.738Z,100306.56
2022-10-07T05:24:55.514Z,100296.38
2022-10-07T05:27:57.567Z,100295.84
2022-10-07T05:31:05.776Z,100295.56
2022-10-07T05:34:08.345Z,100294.16
2022-10-07T05:37:12.216Z,100284.41
2022-10-07T05:40:14.124Z,100287.50
2022-10-07T05:43:15.931Z,100285.84
2022-10-07T05:46:23.856Z,100271.16
2022-10-07T05:49:30.722Z,100268.81
2022-10-07T05:52:37.072Z,100268.28
2022-10-07T05:55:41.873Z,100271.78
2022-10-07T05:58:44.712Z,100271.47
2022-10-07T06:01:46.979Z,100277.44
2022-10-07T06:04:55.413Z,100279.75
2022-10-07T06:07:57.583Z,100275.03
2022-10-07T06:11:23.144Z,100280.97
2022-10-07T06:14:26.147Z,100293.78
2022-10-07T06:17:27.902Z,100291.81
2022-10-07T06:20:33.012Z,100290.16
2022-10-07T06:23:35.458Z,100291.00
2022-10-07T06:26:37.361Z,100291.69
2022-10-07T06:29:39.162Z,100286.78
2022-10-07T06:32:41.319Z,100280.91
2022-10-07T06:35:43.540Z,100279.47
2022-10-07T06:38:48.359Z,100281.75
2022-10-07T06:41:54.531Z,100285.53
2022-10-07T06:45:16.625Z,100276.59
2022-10-07T06:48:19.314Z,100272.44
2022-10-07T06:51:22.172Z,100269.19
2022-10-07T06:54:25.478Z,100273.03
2022-10-07T06:57:44.748Z,100264.22
2022-10-07T07:00:50.296Z,100254.56
2022-10-07T07:03:52.319Z,100250.22
2022-10-07T07:06:54.086Z,100242.72
2022-10-07T07:09:56.731Z,100250.03
2022-10-07T07:12:58.590Z,100248.91
2022-10-07T07:16:00.519Z,100249.53
2022-10-07T07:19:08.708Z,100252.63
2022-10-07T07:22:11.862Z,100249.09
2022-10-07T07:25:15.853Z,100245.41
2022-10-07T07:28:18.925Z,100241.56
2022-10-07T07:31:21.736Z,100252.94
2022-10-07T07:34:23.812Z,100247.09
2022-10-07T07:37:26.741Z,100241.41
2022-10-07T07:40:30.756Z,100243.25
2022-10-07T07:43:33.433Z,100235.03
2022-10-07T07:46:43.184Z,100241.41
2022-10-07T07:49:46.185Z,100245.59
2022-10-07T07:52:57.512Z,100237.56
2022-10-07T07:55:59.471Z,100232.56
2022-10-07T07:59:04.042Z,100229.19
2022-10-07T08:02:07.971Z,100224.31
2022-10-07T08:05:12.509Z,100230.00
2022-10-07T08:08:14.883Z,100225.69
2022-10-07T08:11:20.338Z,100220.50
2022-10-07T08:14:23.607Z,100212.44
2022-10-07T08:17:27.549Z,100208.75
2022-10-07T08:20:29.327Z,100207.75
2022-10-07T08:23:32.199Z,100203.88
2022-10-07T08:26:37.216Z,100207.25
2022-10-07T08:29:41.601Z,100195.81
2022-10-07T08:32:45.233Z,100207.25
2022-10-07T08:35:59.630Z,100192.97
2022-10-07T08:39:02.606Z,100186.56
2022-10-07T08:42:13.509Z,100196.22
2022-10-07T08:45:31.837Z,100190.91
2022-10-07T08:48:38.893Z,100186.06
2022-10-07T08:51:50.385Z,100183.50
2022-10-07T08:54:53.193Z,100172.84
2022-10-07T08:58:18.607Z,100167.16
2022-10-07T09:01:40.012Z,100166.00
2022-10-07T09:04:47.759Z,100160.81
2022-10-07T09:07:58.071Z,100146.25
2022-10-07T09:11:15.920Z,100142.97
2022-10-07T09:14:27.973Z,100137.00
2022-10-07T09:17:35.907Z,100136.78
2022-10-07T09:20:43.195Z,100139.25
2022-10-07T09:23:46.441Z,100121.47
2022-10-07T09:26:48.270Z,100120.50
2022-10-07T09:29:51.446Z,100120.03
2022-10-07T09:32:54.863Z,100114.75
2022-10-07T09:36:04.310Z,100108.81
2022-10-07T09:39:24.397Z,100100.47
2022-10-07T09:42:32.049Z,100096.69
2022-10-07T09:45:35.023Z,100098.44
2022-10-07T09:48:36.860Z,100095.78
2022-10-07T09:51:39.691Z,100085.44
2022-10-07T09:54:43.779Z,100078.19
2022-10-07T09:58:00.310Z,100069.09
2022-10-07T10:01:10.568Z,100070.09
2022-10-07T10:04:17.349Z,100054.47
2022-10-07T10:07:24.843Z,100054.63
2022-10-07T10:10:36.903Z,100043.22
2022-10-07T10:13:43.505Z,100041.56
2022-10-07T10:16:46.924Z,100030.38
2022-10-07T10:19:48.752Z,100031.94
2022-10-07T10:22:51.614Z,100022.44
2022-10-07T10:26:32.739Z,100022.31
2022-10-07T10:29:50.565Z,100016.47
2022-10-07T10:33:04.569Z,100008.63
2022-10-07T10:36:20.854Z,100001.22
2022-10-07T10:39:47.587Z,99994.81
2022-10-07T10:43:12.537Z,99991.94
2022-10-07T10:46:32.762Z,99981.06
2022-10-07T10:50:04.300Z,99978.34
2022-10-07T10:53:34.426Z,99969.41
2022-10-07T10:57:01.803Z,99967.06
2022-10-07T11:00:05.367Z,99955.00
2022-10-07T11:03:32.734Z,99945.97
2022-10-07T11:06:38.308Z,99941.16
2022-10-07T11:09:45.680Z,99935.66
2022-10-07T11:12:58.227Z,99930.44
2022-10-07T11:16:17.506Z,99928.00
2022-10-07T11:19:35.811Z,99925.31
2022-10-07T11:22:45.089Z,99914.97
2022-10-07T11:25:57.433Z,99912.47
2022-10-07T11:29:10.270Z,99901.47
2022-10-07T11:32:50.119Z,99899.44
2022-10-07T11:36:09.290Z,99879.03
2022-10-07T11:39:11.196Z,99858.25
2022-10-07T11:42:40.462Z,99855.75
2022-10-07T11:45:49.956Z,99848.50
2022-10-07T11:49:04.096Z,99844.69
2022-10-07T11:52:19.628Z,99832.84
2022-10-07T11:55:43.305Z,99826.09
2022-10-07T11:58:45.951Z,99831.88
2022-10-07T12:01:52.383Z,99816.41
2022-10-07T12:04:55.145Z,99810.56
2022-10-07T12:08:00.367Z,99808.69
2022-10-07T12:11:22.923Z,99806.00
2022-10-07T12:14:33.809Z,99802.53
2022-10-07T12:17:35.863Z,99796.31
2022-10-07T12:20:46.516Z,99795.91
2022-10-07T12:23:48.809Z,99788.03
2022-10-07T12:27:18.017Z,99787.66
2022-10-07T12:30:40.131Z,99784.94
2022-10-07T12:33:44.609Z,99775.03
2022-10-07T12:36:46.328Z,99768.72
2022-10-07T12:39:48.735Z,99773.59
2022-10-07T12:43:10.400Z,99761.88
2022-10-07T12:46:17.245Z,99762.16
2022-10-07T12:49:40.931Z,99747.34
2022-10-07T12:52:53.012Z,99750.00
2022-10-07T12:55:56.734Z,99750.22
2022-10-07T12:59:36.206Z,99748.44
2022-10-07T13:03:08.908Z,99738.78
2022-10-07T13:06:31.707Z,99740.78
2022-10-07T13:09:55.595Z,99734.31
2022-10-07T13:13:07.565Z,99731.88
2022-10-07T13:16:19.294Z,99720.22
2022-10-07T13:19:43.589Z,99728.59
2022-10-07T13:22:49.705Z,99720.78
2022-10-07T13:25:53.216Z,99720.47
2022-10-07T13:28:58.024Z,99707.25
2022-10-07T13:32:14.436Z,99711.69
2022-10-07T13:35:36.181Z,99696.34
2022-10-07T13:38:39.584Z,99693.09
2022-10-07T13:41:47.655Z,99693.25
2022-10-07T13:44:49.506Z,99692.81
2022-10-07T13:47:51.644Z,99690.03
2022-10-07T13:50:57.108Z,99672.50
2022-10-07T13:54:01.106Z,99680.72
2022-10-07T13:57:03.264Z,99665.59
2022-10-07T14:00:05.613Z,99669.94
2022-10-07T14:03:16.094Z,99667.38
2022-10-07T14:06:37.092Z,99658.78
2022-10-07T14:09:48.228Z,99670.28
2022-10-07T14:12:55.368Z,99656.56
2022-10-07T14:15:59.247Z,99659.47
2022-10-07T14:19:01.052Z,99651.25
2022-10-07T14:22:13.614Z,99648.38
2022-10-07T14:25:27.881Z,99642.31
2022-10-07T14:28:29.724Z,99647.31
2022-10-07T14:31:50.377Z,99639.91
2022-10-07T14:35:30.424Z,99637.81
2022-10-07T14:38:32.148Z,99632.69
2022-10-07T14:41:33.867Z,99633.81
2022-10-07T14:44:36.027Z,99632.13
2022-10-07T14:47:41.424Z,99635.47
2022-10-07T14:50:43.136Z,99629.97
2022-10-07T14:53:49.145Z,99623.56
2022-10-07T14:56:51.244Z,99611.75
2022-10-07T14:59:53.703Z,99609.91
2022-10-07T15:02:58.174Z,99605.16
2022-10-07T15:05:59.865Z,99613.34
2022-10-07T15:09:01.624Z,99610.00
2022-10-07T15:12:04.708Z,99609.44
2022-10-07T15:15:06.999Z,99607.78
2022-10-07T15:18:11.570Z,99608.03
2022-10-07T15:21:13.349Z,99606.41
2022-10-07T15:24:15.048Z,99600.59
2022-10-07T15:27:19.395Z,99606.66
2022-10-07T15:30:21.146Z,99610.84
2022-10-07T15:33:23.109Z,99609.84
2022-10-07T15:36:29.186Z,99610.03
2022-10-07T15:39:30.989Z,99599.13
2022-10-07T15:42:32.756Z,99601.19
2022-10-07T15:45:34.836Z,99603.50
2022-10-07T15:48:36.797Z,99606.66
2022-10-07T15:51:38.966Z,99609.63
2022-10-07T15:54:40.945Z,99610.22
2022-10-07T15:57:42.901Z,99607.75
2022-10-07T16:01:06.437Z,99611.47
2022-10-07T16:04:12.262Z,99604.22
2022-10-07T16:07:15.043Z,99606.28
2022-10-07T16:10:16.934Z,99612.94
2022-10-07T16:13:18.687Z,99615.84
2022-10-07T16:16:23.409Z,99611.28
2022-10-07T16:19:26.016Z,99609.81
2022-10-07T16:22:27.683Z,99619.34
2022-10-07T16:25:29.537Z,99630.31
2022-10-07T16:28:51.128Z,99619.69
2022-10-07T16:31:58.210Z,99622.34
2022-10-07T16:35:00.422Z,99625.25
2022-10-07T16:38:04.204Z,99628.31
2022-10-07T16:41:07.032Z,99639.69
2022-10-07T16:44:09.168Z,99629.75
2022-10-07T16:47:10.955Z,99628.06
2022-10-07T16:50:12.781Z,99628.22
2022-10-07T16:53:14.489Z,99626.78
2022-10-07T16:56:17.983Z,99615.38
2022-10-07T16:59:23.848Z,99622.38
2022-10-07T17:02:25.741Z,99617.81
2022-10-07T17:05:27.460Z,99626.44
2022-10-07T17:08:29.493Z,99626.78
2022-10-07T17:11:36.323Z,99624.91
2022-10-07T17:14:38.945Z,99637.63
2022-10-07T17:17:40.914Z,99630.56
2022-10-07T17:20:48.732Z,99638.19
2022-10-07T17:23:50.766Z,99636.06
2022-10-07T17:26:53.179Z,99626.75
2022-10-07T17:29:55.504Z,99630.84
2022-10-07T17:32:57.617Z,99628.94
2022-10-07T17:36:07.210Z,99627.72
2022-10-07T17:39:09.130Z,99633.03
2022-10-07T17:42:10.892Z,99633.03
2022-10-07T17:45:12.730Z,99627.06
2022-10-07T17:48:14.436Z,99629.97
2022-10-07T17:51:18.531Z,99630.53
2022-10-07T17:54:20.251Z,99631.06
2022-10-07T17:57:22.987Z,99634.59
2022-10-07T18:00:24.846Z,99634.34
2022-10-07T18:03:26.536Z,99634.28
2022-10-07T18:06:36.135Z,99630.78
2022-10-07T18:09:39.420Z,99633.00
2022-10-07T18:12:59.462Z,99631.72
2022-10-07T18:16:03.607Z,99638.50
2022-10-07T18:19:05.372Z,99631.22
2022-10-07T18:22:07.587Z,99617.94
2022-10-07T18:25:10.434Z,99625.91
2022-10-07T18:28:13.425Z,99630.66
2022-10-07T18:31:17.851Z,99619.28
2022-10-07T18:34:19.808Z,99615.66
2022-10-07T18:37:22.946Z,99620.22
2022-10-07T18:40:24.824Z,99615.22
2022-10-07T18:43:26.749Z,99612.53
2022-10-07T18:46:28.469Z,99615.50
2022-10-07T18:49:30.289Z,99610.16
2022-10-07T18:52:32.079Z,99605.16
2022-10-07T18:55:39.196Z,99605.59
2022-10-07T18:58:43.665Z,99602.47
2022-10-07T19:01:50.110Z,99604.88
2022-10-07T19:04:53.308Z,99599.25
2022-10-07T19:07:54.999Z,99598.22
2022-10-07T19:10:56.693Z,99599.25
2022-10-07T19:13:59.376Z,99598.47
2022-10-07T19:17:01.298Z,99596.19
2022-10-07T19:20:04.914Z,99592.69
2022-10-07T19:23:09.723Z,99590.56
2022-10-07T19:26:12.751Z,99585.56
2022-10-07T19:29:16.633Z,99590.38
2022-10-07T19:32:18.345Z,99588.88
2022-10-07T19:35:20.012Z,99591.50
2022-10-07T19:38:24.466Z,99589.22
2022-10-07T19:41:30.541Z,99587.09
2022-10-07T19:44:33.610Z,99590.13
2022-10-07T19:47:35.551Z,99585.59
2022-10-07T19:50:37.482Z,99590.34
2022-10-07T19:53:46.611Z,99587.75
2022-10-07T19:56:49.453Z,99584.34
2022-10-07T19:59:51.149Z,99583.69
2022-10-07T20:02:57.416Z,99579.09
2022-10-07T20:06:00.220Z,99582.66
2022-10-07T20:09:02.298Z,99580.66
2022-10-07T20:12:04.827Z,99581.84
2022-10-07T20:15:07.680Z,99581.22
2022-10-07T20:18:09.943Z,99582.25
2022-10-07T20:21:16.094Z,99579.16
2022-10-07T20:24:17.940Z,99577.06
2022-10-07T20:27:20.037Z,99572.91
2022-10-07T20:30:21.957Z,99573.53
2022-10-07T20:33:23.669Z,99568.16
2022-10-07T20:36:33.659Z,99563.47
2022-10-07T20:39:53.620Z,99568.16
2022-10-07T20:42:55.691Z,99566.72
2022-10-07T20:49:30.074Z,99564.50
2022-10-07T20:52:35.641Z,99555.63
2022-10-07T20:55:37.456Z,99562.38
2022-10-07T20:58:39.239Z,99564.22
2022-10-07T21:01:42.482Z,99555.72
2022-10-07T21:04:46.886Z,99552.94
2022-10-07T21:07:53.781Z,99560.44
2022-10-07T21:11:03.552Z,99553.03
2022-10-07T21:14:05.482Z,99549.03
2022-10-07T21:17:07.960Z,99545.72
2022-10-07T21:20:09.811Z,99552.25
2022-10-07T21:23:11.456Z,99551.09
2022-10-07T21:26:13.562Z,99548.97
2022-10-07T21:29:16.643Z,99553.59
2022-10-07T21:32:18.747Z,99546.09
2022-10-07T21:35:20.407Z,99552.47
2022-10-07T21:38:22.131Z,99548.50
2022-10-07T21:41:34.218Z,99539.28
2022-10-07T21:44:35.937Z,99536.03
2022-10-07T21:47:38.235Z,99535.34
2022-10-07T21:50:40.083Z,99535.72
2022-10-07T21:53:41.797Z,99530.53
2022-10-07T21:56:46.265Z,99534.38
2022-10-07T21:59:48.104Z,99530.69
2022-10-07T22:02:50.451Z,99528.44
2022-10-07T22:05:52.469Z,99524.59
2022-10-07T22:08:56.401Z,99523.06
2022-10-07T22:11:58.542Z,99514.47
2022-10-07T22:15:00.674Z,99514.09
2022-10-07T22:18:04.165Z,99514.81
2022-10-07T22:21:26.095Z,99514.91
2022-10-07T22:24:27.848Z,99507.16
2022-10-07T22:27:29.507Z,99510.84
2022-10-07T22:30:31.180Z,99505.22
2022-10-07T22:33:37.422Z,99501.78
2022-10-07T22:36:39.530Z,99497.84
2022-10-07T22:39:41.527Z,99498.19
2022-10-07T22:42:46.477Z,99494.06
2022-10-07T22:45:59.011Z,99492.56
2022-10-07T22:49:00.761Z,99495.03
2022-10-07T22:52:02.503Z,99490.34
2022-10-07T22:55:06.181Z,99496.03
2022-10-07T22:58:08.051Z,99492.25
2022-10-07T23:01:12.665Z,99488.56
2022-10-07T23:04:14.508Z,99503.22
2022-10-07T23:07:16.681Z,99498.16
2022-10-07T23:10:18.532Z,99496.00
2022-10-07T23:13:20.242Z,99493.53
2022-10-07T23:16:24.360Z,99497.13
2022-10-07T23:19:26.159Z,99499.66
2022-10-07T23:22:27.849Z,99489.34
2022-10-07T23:25:29.794Z,99488.22
2022-10-07T23:28:33.856Z,99499.28
2022-10-07T23:31:35.816Z,99497.22
2022-10-07T23:34:37.559Z,99499.81
2022-10-07T23:37:39.432Z,99493.34
2022-10-07T23:40:41.196Z,99499.75
2022-10-07T23:43:42.987Z,99499.16
2022-10-07T23:46:44.950Z,99497.56
2022-10-07T23:49:46.765Z,99501.41
2022-10-07T23:52:49.186Z,99499.63
2022-10-07T23:55:53.151Z,99501.34
2022-10-07T23:58:54.989Z,99501.69
